createdAt,value
2022-09-05T00:01:28.282Z,14.67
2022-09-05T00:04:25.213Z,14.65
2022-09-05T00:07:58.350Z,14.64
2022-09-05T00:10:37.177Z,14.58
2022-09-05T00:13:10.715Z,14.49
2022-09-05T00:15:49.462Z,14.43
2022-09-05T00:22:09.483Z,14.31
2022-09-05T00:24:28.427Z,14.35
2022-09-05T00:25:01.024Z,14.26
2022-09-05T00:27:53.526Z,14.33
2022-09-05T00:31:50.570Z,14.27
2022-09-05T00:33:42.894Z,14.34
2022-09-05T00:36:49.481Z,14.26
2022-09-05T00:39:38.607Z,14.17
2022-09-05T00:42:19.343Z,14.12
2022-09-05T00:44:58.614Z,14.22
2022-09-05T00:47:35.364Z,14.23
2022-09-05T00:50:13.177Z,14.21
2022-09-05T00:53:07.844Z,14.12
2022-09-05T00:56:04.391Z,14.17
2022-09-05T00:58:47.668Z,14.14
2022-09-05T01:01:39.186Z,14.15
2022-09-05T01:04:24.642Z,14.17
2022-09-05T01:07:16.675Z,14.17
2022-09-05T01:09:53.453Z,14.18
2022-09-05T01:12:29.278Z,14.16
2022-09-05T01:15:24.166Z,14.15
2022-09-05T01:17:56.646Z,14.12
2022-09-05T01:20:44.631Z,14.03
2022-09-05T01:23:20.519Z,13.96
2022-09-05T01:26:05.295Z,13.91
2022-09-05T01:29:16.852Z,13.85
2022-09-05T01:31:56.900Z,13.75
2022-09-05T01:34:32.600Z,13.74
2022-09-05T01:37:32.907Z,13.71
2022-09-05T01:40:21.130Z,13.61
2022-09-05T01:43:06.626Z,13.60
2022-09-05T01:45:48.794Z,13.66
2022-09-05T01:48:17.368Z,13.69
2022-09-05T01:50:59.319Z,13.72
2022-09-05T01:53:55.621Z,13.76
2022-09-05T01:56:33.682Z,13.79
2022-09-05T01:59:19.287Z,13.84
2022-09-05T02:01:58.180Z,13.84
2022-09-05T02:04:46.671Z,13.84
2022-09-05T02:07:31.884Z,13.80
2022-09-05T02:10:36.119Z,13.81
2022-09-05T02:13:17.602Z,13.78
2022-09-05T02:16:00.468Z,13.76
2022-09-05T02:18:36.529Z,13.73
2022-09-05T02:21:11.615Z,13.69
2022-09-05T02:23:47.892Z,13.72
2022-09-05T02:26:32.180Z,13.70
2022-09-05T02:29:05.506Z,13.61
2022-09-05T02:31:42.040Z,13.63
2022-09-05T02:34:11.742Z,13.58
2022-09-05T02:36:45.518Z,13.59
2022-09-05T02:45:02.533Z,13.54
2022-09-05T02:45:14.817Z,13.52
2022-09-05T02:45:50.865Z,13.57
2022-09-05T02:48:26.661Z,13.56
2022-09-05T02:57:24.731Z,13.54
2022-09-05T02:57:40.977Z,13.48
2022-09-05T02:58:05.991Z,13.51
2022-09-05T03:00:21.277Z,13.46
2022-09-05T03:02:57.004Z,13.46
2022-09-05T03:05:33.601Z,13.36
2022-09-05T03:08:06.286Z,13.37
2022-09-05T03:11:12.165Z,13.36
2022-09-05T03:14:18.070Z,13.31
2022-09-05T03:17:09.451Z,13.30
2022-09-05T03:19:54.371Z,13.29
2022-09-05T03:22:58.715Z,13.24
2022-09-05T03:25:37.531Z,13.19
2022-09-05T03:28:51.206Z,13.14
2022-09-05T03:31:42.872Z,13.13
2022-09-05T03:34:27.646Z,13.11
2022-09-05T03:36:54.298Z,13.10
2022-09-05T03:39:51.630Z,13.09
2022-09-05T03:42:30.914Z,13.07
2022-09-05T03:45:04.666Z,13.02
2022-09-05T03:48:28.561Z,13.11
2022-09-05T03:54:43.444Z,13.09
2022-09-05T03:57:11.565Z,13.07
2022-09-05T03:57:32.375Z,13.09
2022-09-05T04:00:10.281Z,13.09
2022-09-05T04:08:08.589Z,13.10
2022-09-05T04:08:23.603Z,12.99
2022-09-05T04:09:09.837Z,12.98
2022-09-05T04:11:41.897Z,12.96
2022-09-05T04:14:40.958Z,12.99
2022-09-05T04:17:20.117Z,12.97
2022-09-05T04:20:02.733Z,12.97
2022-09-05T04:23:07.146Z,12.98
2022-09-05T04:25:39.699Z,12.95
2022-09-05T04:28:32.020Z,12.85
2022-09-05T04:31:10.490Z,12.80
2022-09-05T04:34:04.345Z,12.82
2022-09-05T04:36:34.583Z,12.87
2022-09-05T04:39:19.651Z,12.91
2022-09-05T04:41:54.599Z,12.92
2022-09-05T04:44:33.543Z,12.89
2022-09-05T04:47:10.416Z,12.90
2022-09-05T04:49:43.380Z,12.95
2022-09-05T04:52:29.416Z,12.94
2022-09-05T04:55:27.328Z,12.87
2022-09-05T04:58:11.011Z,12.90
2022-09-05T05:06:01.554Z,12.89
2022-09-05T05:06:10.309Z,12.80
2022-09-05T05:06:47.413Z,12.94
2022-09-05T05:10:41.821Z,13.03
2022-09-05T05:17:59.776Z,13.15
2022-09-05T05:18:01.025Z,13.08
2022-09-05T05:19:18.707Z,13.32
2022-09-05T05:21:55.666Z,13.50
2022-09-05T05:24:26.405Z,13.59
2022-09-05T05:27:11.795Z,13.70
2022-09-05T05:29:58.444Z,13.91
2022-09-05T05:32:45.456Z,14.02
2022-09-05T05:35:24.638Z,14.15
2022-09-05T05:38:10.960Z,14.22
2022-09-05T05:40:43.630Z,14.29
2022-09-05T05:43:25.907Z,14.35
2022-09-05T05:46:00.616Z,14.26
2022-09-05T05:48:33.452Z,14.22
2022-09-05T05:51:07.768Z,14.25
2022-09-05T05:54:18.878Z,14.33
2022-09-05T05:57:00.279Z,14.40
2022-09-05T06:00:01.947Z,14.54
2022-09-05T06:03:10.018Z,14.71
2022-09-05T06:06:07.243Z,14.97
2022-09-05T06:14:48.125Z,15.06
2022-09-05T06:15:02.640Z,15.21
2022-09-05T06:15:12.067Z,15.49
2022-09-05T06:17:55.473Z,15.77
2022-09-05T06:22:07.594Z,15.92
2022-09-05T06:23:23.983Z,16.08
2022-09-05T06:26:29.993Z,16.05
2022-09-05T06:29:12.763Z,15.92
2022-09-05T06:32:02.385Z,16.07
2022-09-05T06:34:41.280Z,16.17
2022-09-05T06:37:35.486Z,16.44
2022-09-05T06:40:19.710Z,16.77
2022-09-05T06:43:16.429Z,17.23
2022-09-05T06:45:59.038Z,17.61
2022-09-05T06:48:44.493Z,17.96
2022-09-05T06:51:44.187Z,17.87
2022-09-05T06:54:27.141Z,17.79
2022-09-05T06:57:40.012Z,17.74
2022-09-05T07:00:24.798Z,17.84
2022-09-05T07:03:15.989Z,17.77
2022-09-05T07:06:07.604Z,17.90
2022-09-05T07:08:54.056Z,18.08
2022-09-05T07:11:25.707Z,18.30
2022-09-05T07:13:57.720Z,18.59
2022-09-05T07:16:39.717Z,18.96
2022-09-05T07:19:10.227Z,18.88
2022-09-05T07:21:52.523Z,18.99
2022-09-05T07:24:54.311Z,19.18
2022-09-05T07:27:25.356Z,19.39
2022-09-05T07:30:01.027Z,19.59
2022-09-05T07:32:42.758Z,19.44
2022-09-05T07:35:19.841Z,19.17
2022-09-05T07:37:53.451Z,19.26
2022-09-05T07:40:26.359Z,19.56
2022-09-05T07:43:10.096Z,19.73
2022-09-05T07:45:55.319Z,19.75
2022-09-05T07:48:35.005Z,19.95
2022-09-05T07:55:26.202Z,19.94
2022-09-05T07:57:05.033Z,19.82
2022-09-05T08:00:03.454Z,19.96
2022-09-05T08:02:51.439Z,20.00
2022-09-05T08:05:26.022Z,20.14
2022-09-05T08:08:08.550Z,20.49
2022-09-05T08:11:24.430Z,20.48
2022-09-05T08:13:49.669Z,20.46
2022-09-05T08:16:21.625Z,20.39
2022-09-05T08:18:54.394Z,20.40
2022-09-05T08:21:46.333Z,20.36
2022-09-05T08:24:25.083Z,20.32
2022-09-05T08:26:59.375Z,20.63
2022-09-05T08:29:31.992Z,20.94
2022-09-05T08:32:12.074Z,20.91
2022-09-05T08:34:45.385Z,21.04
2022-09-05T08:37:21.239Z,21.11
2022-09-05T08:39:57.487Z,21.38
2022-09-05T08:46:06.193Z,21.35
2022-09-05T08:46:47.821Z,21.22
2022-09-05T08:48:49.246Z,21.49
2022-09-05T08:51:26.544Z,21.47
2022-09-05T08:54:18.387Z,21.69
2022-09-05T08:56:48.036Z,21.90
2022-09-05T08:59:45.779Z,22.31
2022-09-05T09:02:50.936Z,22.88
2022-09-05T09:05:59.404Z,23.04
2022-09-05T09:08:50.838Z,22.86
2022-09-05T09:11:41.519Z,22.86
2022-09-05T09:14:31.362Z,23.16
2022-09-05T09:17:16.097Z,23.42
2022-09-05T09:19:48.890Z,23.43
2022-09-05T09:22:36.772Z,23.46
2022-09-05T09:25:14.600Z,23.45
2022-09-05T09:28:45.224Z,23.73
2022-09-05T09:31:09.975Z,23.63
2022-09-05T09:33:55.589Z,23.72
2022-09-05T09:36:22.309Z,24.04
2022-09-05T09:39:37.598Z,24.39
2022-09-05T09:42:32.652Z,24.35
2022-09-05T09:45:28.355Z,24.83
2022-09-05T09:48:11.049Z,25.27
2022-09-05T09:51:06.283Z,25.01
2022-09-05T09:54:05.383Z,24.94
2022-09-05T09:56:56.960Z,24.98
2022-09-05T09:59:54.145Z,25.15
2022-09-05T10:03:56.565Z,25.16
2022-09-05T10:10:52.847Z,25.06
2022-09-05T10:10:57.331Z,25.46
2022-09-05T10:11:56.134Z,25.12
2022-09-05T10:14:52.924Z,25.24
2022-09-05T10:17:22.736Z,25.29
2022-09-05T10:20:24.029Z,25.32
2022-09-05T10:23:15.544Z,25.43
2022-09-05T10:26:17.125Z,25.80
2022-09-05T10:29:11.727Z,26.15
2022-09-05T10:34:35.769Z,26.06
2022-09-05T10:35:21.015Z,26.15
2022-09-05T10:37:55.010Z,26.19
2022-09-05T10:40:24.308Z,26.10
2022-09-05T10:43:03.097Z,25.97
2022-09-05T10:45:49.484Z,26.07
2022-09-05T10:48:24.805Z,26.37
2022-09-05T10:51:00.760Z,26.65
2022-09-05T10:53:45.955Z,26.74
2022-09-05T10:56:23.472Z,26.77
2022-09-05T11:01:12.737Z,26.28
2022-09-05T11:02:28.058Z,26.42
2022-09-05T11:05:03.321Z,26.73
2022-09-05T11:07:36.354Z,26.67
2022-09-05T11:10:20.398Z,26.75
2022-09-05T11:13:14.376Z,26.79
2022-09-05T11:16:04.275Z,26.92
2022-09-05T11:18:57.651Z,27.12
2022-09-05T11:22:03.967Z,27.25
2022-09-05T11:24:51.186Z,26.67
2022-09-05T11:27:31.418Z,27.08
2022-09-05T11:30:30.285Z,27.27
2022-09-05T11:39:57.724Z,27.56
2022-09-05T11:39:58.915Z,27.42
2022-09-05T11:40:31.020Z,27.49
2022-09-05T11:43:09.758Z,27.22
2022-09-05T11:45:43.062Z,27.35
2022-09-05T11:48:57.490Z,27.22
2022-09-05T11:51:28.324Z,27.59
2022-09-05T11:54:33.221Z,27.60
2022-09-05T11:57:56.882Z,28.07
2022-09-05T12:00:46.754Z,27.56
2022-09-05T12:03:58.174Z,27.36
2022-09-05T12:06:14.907Z,27.76
2022-09-05T12:08:54.969Z,28.07
2022-09-05T12:11:25.221Z,28.15
2022-09-05T12:14:21.389Z,28.17
2022-09-05T12:16:55.399Z,27.93
2022-09-05T12:19:28.093Z,28.20
2022-09-05T12:22:18.624Z,28.61
2022-09-05T12:25:26.606Z,29.15
2022-09-05T12:28:15.247Z,29.23
2022-09-05T12:30:57.113Z,29.50
2022-09-05T12:36:05.068Z,29.07
2022-09-05T12:40:43.517Z,28.17
2022-09-05T12:41:33.000Z,28.46
2022-09-05T12:44:34.635Z,28.20
2022-09-05T12:45:46.119Z,27.86
2022-09-05T12:48:38.825Z,28.24
2022-09-05T12:51:47.106Z,28.23
2022-09-05T12:54:33.331Z,28.39
2022-09-05T13:01:53.139Z,28.85
2022-09-05T13:03:07.313Z,29.16
2022-09-05T13:03:27.064Z,28.77
2022-09-05T13:06:02.022Z,28.83
2022-09-05T13:08:44.037Z,28.72
2022-09-05T13:14:55.596Z,27.90
2022-09-05T13:15:02.310Z,28.34
2022-09-05T13:17:16.692Z,28.04
2022-09-05T13:19:51.396Z,28.05
2022-09-05T13:22:24.445Z,28.42
2022-09-05T13:25:03.071Z,28.57
2022-09-05T13:27:39.521Z,28.25
2022-09-05T13:33:24.013Z,28.34
2022-09-05T13:38:00.574Z,28.19
2022-09-05T13:38:10.165Z,28.54
2022-09-05T13:39:06.840Z,28.14
2022-09-05T13:41:48.788Z,28.29
2022-09-05T13:44:26.723Z,28.56
2022-09-05T13:47:29.870Z,28.67
2022-09-05T13:50:27.115Z,28.34
2022-09-05T13:52:58.996Z,28.06
2022-09-05T13:55:46.345Z,27.92
2022-09-05T13:58:42.919Z,27.68
2022-09-05T14:02:25.520Z,27.38
2022-09-05T14:05:17.889Z,27.46
2022-09-05T14:08:16.831Z,27.40
2022-09-05T14:11:11.048Z,27.24
2022-09-05T14:13:49.523Z,27.38
2022-09-05T14:16:29.404Z,27.59
2022-09-05T14:19:15.164Z,27.45
2022-09-05T14:21:44.275Z,27.58
2022-09-05T14:24:27.688Z,27.46
2022-09-05T14:27:03.014Z,27.63
2022-09-05T14:29:46.550Z,27.83
2022-09-05T14:37:35.955Z,27.94
2022-09-05T14:37:44.164Z,27.85
2022-09-05T14:38:24.220Z,27.49
2022-09-05T14:41:10.183Z,27.41
2022-09-05T14:43:39.871Z,27.36
2022-09-05T14:46:33.739Z,27.39
2022-09-05T14:49:25.748Z,27.54
2022-09-05T14:51:52.973Z,27.54
2022-09-05T15:02:45.135Z,27.35
2022-09-05T15:02:50.083Z,27.36
2022-09-05T15:03:05.103Z,27.32
2022-09-05T15:05:45.392Z,27.09
2022-09-05T15:10:28.257Z,26.83
2022-09-05T15:12:24.352Z,26.51
2022-09-05T15:14:06.567Z,26.50
2022-09-05T15:16:38.672Z,26.54
2022-09-05T15:19:09.940Z,26.41
2022-09-05T15:21:40.621Z,26.34
2022-09-05T15:24:21.534Z,26.37
2022-09-05T15:26:55.286Z,26.27
2022-09-05T15:29:36.992Z,26.35
2022-09-05T15:32:21.541Z,26.37
2022-09-05T15:34:54.692Z,26.28
2022-09-05T15:37:36.857Z,26.23
2022-09-05T15:40:24.023Z,26.19
2022-09-05T15:42:57.716Z,26.08
2022-09-05T15:45:37.554Z,25.84
2022-09-05T15:48:24.000Z,25.77
2022-09-05T15:50:55.586Z,25.66
2022-09-05T15:53:26.271Z,25.66
2022-09-05T15:56:00.033Z,25.67
2022-09-05T15:58:27.595Z,25.70
2022-09-05T16:01:48.628Z,25.66
2022-09-05T16:10:29.160Z,25.59
2022-09-05T16:10:30.984Z,25.59
2022-09-05T16:10:49.543Z,25.59
2022-09-05T16:12:48.860Z,25.50
2022-09-05T16:19:58.198Z,25.45
2022-09-05T16:23:17.853Z,25.44
2022-09-05T16:23:33.137Z,25.35
2022-09-05T16:24:57.984Z,25.32
2022-09-05T16:27:36.215Z,25.24
2022-09-05T16:30:15.697Z,25.10
2022-09-05T16:32:46.528Z,25.04
2022-09-05T16:35:26.367Z,24.96
2022-09-05T16:38:08.385Z,24.89
2022-09-05T16:40:40.810Z,24.84
2022-09-05T16:43:24.252Z,24.77
2022-09-05T16:46:07.043Z,24.67
2022-09-05T16:48:55.598Z,24.61
2022-09-05T16:51:52.897Z,24.49
2022-09-05T16:54:34.909Z,24.43
2022-09-05T16:57:10.895Z,24.39
2022-09-05T16:59:41.710Z,24.39
2022-09-05T17:02:28.842Z,24.33
2022-09-05T17:06:00.531Z,24.30
2022-09-05T17:08:30.121Z,24.23
2022-09-05T17:11:12.161Z,24.27
2022-09-05T17:13:56.217Z,24.23
2022-09-05T17:16:47.502Z,24.11
2022-09-05T17:19:22.185Z,24.03
2022-09-05T17:25:14.068Z,23.93
2022-09-05T17:29:28.937Z,23.83
2022-09-05T17:29:45.743Z,23.76
2022-09-05T17:33:44.936Z,23.70
2022-09-05T17:36:21.079Z,23.65
2022-09-05T17:39:44.585Z,23.56
2022-09-05T17:42:36.967Z,23.43
2022-09-05T17:45:12.972Z,23.29
2022-09-05T17:47:50.057Z,23.25
2022-09-05T17:50:44.235Z,23.16
2022-09-05T17:53:26.269Z,23.06
2022-09-05T17:55:55.101Z,22.99
2022-09-05T17:58:28.244Z,22.92
2022-09-05T18:01:26.843Z,22.81
2022-09-05T18:04:16.633Z,22.72
2022-09-05T18:06:52.820Z,22.68
2022-09-05T18:09:40.049Z,22.63
2022-09-05T18:12:37.966Z,22.55
2022-09-05T18:15:26.447Z,22.48
2022-09-05T18:17:53.122Z,22.40
2022-09-05T18:20:39.517Z,22.36
2022-09-05T18:23:39.283Z,22.28
2022-09-05T18:26:21.369Z,22.22
2022-09-05T18:29:57.424Z,22.18
2022-09-05T18:32:11.985Z,22.04
2022-09-05T18:34:41.209Z,21.86
2022-09-05T18:37:37.463Z,21.69
2022-09-05T18:40:29.856Z,21.55
2022-09-05T18:43:10.551Z,21.38
2022-09-05T18:45:52.809Z,21.33
2022-09-05T18:48:29.970Z,21.16
2022-09-05T18:51:15.040Z,21.15
2022-09-05T18:53:47.616Z,21.11
2022-09-05T18:56:29.080Z,21.15
2022-09-05T18:59:34.530Z,21.10
2022-09-05T19:02:08.990Z,21.14
2022-09-05T19:05:01.261Z,21.24
2022-09-05T19:07:39.983Z,21.38
2022-09-05T19:10:36.255Z,21.53
2022-09-05T19:13:17.488Z,21.53
2022-09-05T19:16:42.639Z,21.60
2022-09-05T19:19:05.844Z,21.66
2022-09-05T19:21:33.683Z,21.66
2022-09-05T19:24:07.192Z,21.62
2022-09-05T19:26:34.538Z,21.53
2022-09-05T19:36:46.652Z,21.39
2022-09-05T19:36:56.898Z,21.47
2022-09-05T19:37:13.894Z,21.23
2022-09-05T19:37:48.251Z,21.10
2022-09-05T19:47:00.518Z,20.95
2022-09-05T19:47:44.714Z,20.62
2022-09-05T19:47:49.137Z,20.46
2022-09-05T19:49:10.681Z,20.37
2022-09-05T19:51:39.142Z,20.29
2022-09-05T19:54:06.155Z,20.25
2022-09-05T19:56:45.836Z,20.19
2022-09-05T19:59:22.487Z,20.14
2022-09-05T20:01:51.751Z,20.10
2022-09-05T20:04:20.060Z,20.07
2022-09-05T20:06:49.515Z,19.99
2022-09-05T20:09:19.043Z,19.90
2022-09-05T20:11:58.593Z,19.88
2022-09-05T20:14:31.424Z,19.87
2022-09-05T20:17:28.602Z,19.89
2022-09-05T20:20:08.613Z,19.91
2022-09-05T20:22:48.893Z,19.90
2022-09-05T20:25:42.787Z,19.98
2022-09-05T20:28:13.779Z,19.99
2022-09-05T20:30:46.858Z,19.95
2022-09-05T20:33:19.627Z,19.83
2022-09-05T20:43:07.762Z,19.68
2022-09-05T20:43:15.404Z,19.57
2022-09-05T20:43:23.465Z,19.44
2022-09-05T20:44:25.065Z,19.36
2022-09-05T20:54:06.213Z,19.27
2022-09-05T20:54:08.451Z,19.28
2022-09-05T20:54:14.454Z,19.19
2022-09-05T20:56:04.657Z,19.16
2022-09-05T20:58:35.351Z,19.13
2022-09-05T21:01:19.619Z,19.02
2022-09-05T21:04:01.074Z,19.00
2022-09-05T21:06:34.542Z,18.84
2022-09-05T21:09:25.116Z,18.73
2022-09-05T21:11:58.727Z,18.63
2022-09-05T21:14:29.142Z,18.61
2022-09-05T21:17:08.288Z,18.65
2022-09-05T21:19:53.396Z,18.60
2022-09-05T21:22:20.993Z,18.56
2022-09-05T21:24:48.854Z,18.49
2022-09-05T21:27:25.769Z,18.47
2022-09-05T21:29:58.672Z,18.37
2022-09-05T21:32:36.136Z,18.35
2022-09-05T21:35:34.635Z,18.31
2022-09-05T21:37:57.032Z,18.31
2022-09-05T21:40:23.948Z,18.21
2022-09-05T21:46:38.655Z,18.22
2022-09-05T21:47:38.728Z,18.17
2022-09-05T21:48:28.190Z,18.09
2022-09-05T21:51:02.482Z,18.13
2022-09-05T21:57:56.642Z,18.13
2022-09-05T21:59:29.832Z,18.04
2022-09-05T22:02:01.388Z,18.03
2022-09-05T22:04:28.327Z,18.00
2022-09-05T22:06:58.658Z,17.97
2022-09-05T22:09:25.756Z,17.93
2022-09-05T22:11:52.867Z,17.93
2022-09-05T22:14:21.978Z,17.88
2022-09-05T22:16:52.137Z,17.88
2022-09-05T22:19:37.049Z,17.86
2022-09-05T22:22:16.022Z,17.78
2022-09-05T22:24:57.040Z,17.68
2022-09-05T22:27:27.448Z,17.62
2022-09-05T22:29:55.747Z,17.65
2022-09-05T22:32:34.117Z,17.66
2022-09-05T22:35:18.534Z,17.62
2022-09-05T22:37:59.206Z,17.51
2022-09-05T22:40:28.793Z,17.50
2022-09-05T22:42:57.984Z,17.38
2022-09-05T22:45:26.015Z,17.35
2022-09-05T22:47:53.195Z,17.32
2022-09-05T22:50:19.903Z,17.27
2022-09-05T22:52:46.634Z,17.22
2022-09-05T22:55:13.414Z,17.22
2022-09-05T22:57:40.861Z,17.22
2022-09-05T23:00:08.419Z,17.15
2022-09-05T23:02:37.858Z,17.18
2022-09-05T23:05:05.887Z,17.22
2022-09-05T23:07:32.994Z,17.17
2022-09-05T23:09:59.758Z,17.16
2022-09-05T23:12:26.703Z,17.10
2022-09-05T23:14:53.530Z,17.10
2022-09-05T23:17:20.172Z,17.08
2022-09-05T23:19:46.882Z,17.06
2022-09-05T23:22:13.558Z,17.14
2022-09-05T23:24:40.309Z,17.11
2022-09-05T23:27:06.948Z,17.15
2022-09-05T23:29:33.637Z,17.12
2022-09-05T23:32:00.284Z,17.09
2022-09-05T23:34:26.977Z,17.05
2022-09-05T23:36:53.655Z,17.02
2022-09-05T23:39:20.336Z,16.99
2022-09-05T23:41:46.988Z,16.93
2022-09-05T23:44:13.679Z,16.87
2022-09-05T23:46:40.493Z,16.86
2022-09-05T23:49:07.338Z,16.85
2022-09-05T23:51:34.059Z,16.73
2022-09-05T23:54:00.718Z,16.72
2022-09-05T23:56:27.389Z,16.67
2022-09-05T23:58:54.353Z,16.61
